Time;durP1;ratioP1;P1;durP2;ratioP2;P2;SDS_P1;SDS_P2;PMS_P1;PMS_P2;Temp;Humidity;BMP_temperature;BMP_pressure;BME280_temperature;BME280_humidity;BME280_pressure;Samples;Min_cycle;Max_cycle;Signal;HPM_P1;HPM_P2
2023/01/24 00:10:00;;;;;;;46.00;27.60;;;;;;;-0.27;100.00;101581.41;436857;1251;142411;-61
2023/01/24 00:20:09;;;;;;;44.10;26.80;;;;;;;-0.27;100.00;101585.88;439267;1251;142432;-61
2023/01/24 00:30:15;;;;;;;43.40;24.30;;;;;;;-0.26;100.00;101590.37;436024;1250;144362;-61
2023/01/24 00:40:21;;;;;;;37.90;25.00;;;;;;;-0.20;100.00;101580.80;445533;1251;200958;-62
2023/01/24 00:50:27;;;;;;;42.20;27.90;;;;;;;-0.15;100.00;101587.42;436428;1252;202784;-60
2023/01/24 01:00:34;;;;;;;46.20;30.30;;;;;;;-0.15;100.00;101588.61;439898;1251;144852;-60
2023/01/24 01:10:38;;;;;;;;;;;;;;;-0.18;100.00;101587.20;444121;1252;144891;-61
2023/01/24 01:20:51;;;;;;;36.00;24.10;;;;;;;-0.16;100.00;101588.27;435413;1255;128441;-61
2023/01/24 01:30:58;;;;;;;51.80;29.00;;;;;;;-0.14;100.00;101583.98;434383;1252;144368;-61
2023/01/24 01:41:03;;;;;;;;;;;;;;;-0.18;100.00;101585.32;434562;1255;142157;-61
2023/01/24 01:51:17;;;;;;;43.50;25.40;;;;;;;-0.17;100.00;101585.85;436015;1251;129113;-60
2023/01/24 02:01:23;;;;;;;42.70;27.70;;;;;;;-0.17;100.00;101571.90;436082;1251;143937;-61
2023/01/24 02:11:39;;;;;;;44.80;26.00;;;;;;;-0.16;100.00;101565.88;434195;1252;146473;-60
2023/01/24 02:21:48;;;;;;;34.20;21.60;;;;;;;-0.17;100.00;101562.42;433502;1251;144397;-61
2023/01/24 02:31:59;;;;;;;30.50;19.00;;;;;;;-0.19;100.00;101549.48;435689;1255;144229;-60
2023/01/24 02:42:09;;;;;;;34.20;22.60;;;;;;;-0.15;100.00;101541.27;439610;1252;147284;-60
2023/01/24 03:02:39;;;;;;;36.80;21.20;;;;;;;-0.07;100.00;101546.70;434968;1251;148046;-60
2023/01/24 03:43:56;;;;;;;36.70;21.20;;;;;;;-0.11;100.00;101567.83;433451;1255;143213;-62
2023/01/24 03:54:01;;;;;;;36.80;21.20;;;;;;;-0.16;100.00;101576.55;438840;1252;143244;-62
2023/01/24 04:04:07;;;;;;;40.00;22.00;;;;;;;-0.17;100.00;101575.34;432368;1253;143543;-63
2023/01/24 04:14:13;;;;;;;42.70;23.50;;;;;;;-0.21;100.00;101582.85;433262;1253;143338;-62
2023/01/24 04:24:39;;;;;;;38.30;20.50;;;;;;;-0.25;100.00;101588.83;436320;1251;143249;-61
2023/01/24 04:34:45;;;;;;;42.50;23.60;;;;;;;-0.25;100.00;101591.75;438446;1255;146006;-63
2023/01/24 04:44:50;;;;;;;37.60;21.80;;;;;;;-0.28;100.00;101589.48;443754;1252;146417;-62
2023/01/24 04:54:57;;;;;;;38.40;25.30;;;;;;;-0.28;100.00;101599.80;434887;1255;142957;-62
2023/01/24 05:05:03;;;;;;;36.70;21.30;;;;;;;-0.26;100.00;101603.45;435844;1252;143438;-62
2023/01/24 05:15:10;;;;;;;41.30;24.10;;;;;;;-0.27;100.00;101603.27;439076;1253;143387;-63
2023/01/24 05:25:16;;;;;;;46.40;25.80;;;;;;;-0.26;100.00;101605.18;436525;1255;144291;-61
2023/01/24 05:35:22;;;;;;;42.30;24.90;;;;;;;-0.27;100.00;101607.58;436693;1255;142908;-63
2023/01/24 05:45:28;;;;;;;39.70;22.70;;;;;;;-0.28;100.00;101605.33;434837;1251;146933;-62
2023/01/24 05:55:34;;;;;;;48.00;25.90;;;;;;;-0.26;100.00;101611.36;450412;1251;143458;-63
2023/01/24 06:05:40;;;;;;;37.20;23.90;;;;;;;-0.22;100.00;101607.10;450297;1251;143476;-62
2023/01/24 06:15:46;;;;;;;45.60;25.80;;;;;;;-0.14;100.00;101615.30;435995;1252;143228;-60
2023/01/24 06:25:53;;;;;;;48.30;27.50;;;;;;;-0.14;100.00;101628.91;441981;1253;144264;-60
2023/01/24 06:36:24;;;;;;;48.20;27.60;;;;;;;-0.15;100.00;101632.52;445237;1251;144029;-61
2023/01/24 06:46:30;;;;;;;40.60;25.50;;;;;;;-0.17;100.00;101636.10;431619;1255;142891;-61
2023/01/24 06:56:36;;;;;;;48.20;26.10;;;;;;;-0.12;100.00;101650.62;436351;1255;145461;-60
2023/01/24 07:06:42;;;;;;;50.00;27.20;;;;;;;-0.08;100.00;101661.53;449429;1252;143706;-60
2023/01/24 07:16:49;;;;;;;48.10;27.80;;;;;;;0.01;100.00;101665.95;450387;1252;145644;-61
2023/01/24 07:26:56;;;;;;;42.10;23.80;;;;;;;0.10;100.00;101671.23;450423;1252;143757;-61
2023/01/24 07:37:01;;;;;;;40.00;23.50;;;;;;;0.18;100.00;101665.30;449802;1252;145495;-62
2023/01/24 07:47:07;;;;;;;41.90;25.10;;;;;;;0.27;100.00;101668.00;450451;1251;144509;-61
2023/01/24 07:57:15;;;;;;;44.70;24.50;;;;;;;0.37;100.00;101670.88;450529;1251;143603;-61
2023/01/24 08:07:21;;;;;;;42.50;24.10;;;;;;;0.50;100.00;101672.06;449848;1252;142627;-61
2023/01/24 08:17:27;;;;;;;38.50;22.80;;;;;;;0.69;100.00;101675.88;450459;1251;146338;-61
2023/01/24 08:27:33;;;;;;;42.60;23.70;;;;;;;0.85;100.00;101674.30;438118;1252;143402;-61
2023/01/24 08:37:39;;;;;;;39.50;21.50;;;;;;;0.91;100.00;101676.79;450440;1251;142732;-61
2023/01/24 08:47:45;;;;;;;40.70;25.00;;;;;;;1.08;100.00;101685.90;450373;1252;143267;-62
2023/01/24 08:57:51;;;;;;;37.30;24.00;;;;;;;1.20;100.00;101692.56;449587;1251;144165;-61
2023/01/24 09:07:57;;;;;;;39.00;24.20;;;;;;;1.42;100.00;101703.44;450309;1253;143245;-62
2023/01/24 09:18:04;;;;;;;40.00;24.20;;;;;;;1.67;100.00;101692.06;450381;1251;144106;-62
2023/01/24 09:28:08;;;;;;;;;;;;;;;1.98;100.00;101682.56;443666;1251;144400;-62
2023/01/24 09:38:14;;;;;;;37.60;22.90;;;;;;;2.28;100.00;101678.74;450537;1251;129019;-61
2023/01/24 09:48:21;;;;;;;38.00;24.10;;;;;;;2.50;100.00;101673.97;450324;1251;143647;-61
2023/01/24 09:58:33;;;;;;;30.70;21.10;;;;;;;2.41;100.00;101676.02;449870;1253;198217;-62
2023/01/24 10:08:45;;;;;;;37.40;21.30;;;;;;;2.58;100.00;101677.11;450344;1251;144582;-60
2023/01/24 10:19:04;;;;;;;43.40;27.30;;;;;;;2.74;100.00;101670.05;449567;1251;143333;-61
2023/01/24 10:29:17;;;;;;;38.50;22.60;;;;;;;2.94;100.00;101670.77;450194;1251;143064;-61
2023/01/24 10:39:23;;;;;;;39.70;23.20;;;;;;;3.02;100.00;101669.05;449528;1251;143765;-61
2023/01/24 10:49:33;;;;;;;42.50;25.90;;;;;;;2.90;100.00;101666.79;450379;1251;143436;-60
2023/01/24 10:59:42;;;;;;;41.20;25.20;;;;;;;2.72;100.00;101663.48;450293;1251;143659;-61
2023/01/24 11:09:48;;;;;;;50.40;26.20;;;;;;;2.46;100.00;101659.96;449601;1251;144575;-61
2023/01/24 11:20:02;;;;;;;46.60;28.00;;;;;;;2.38;100.00;101654.57;450315;1251;142313;-61
2023/01/24 11:30:18;;;;;;;37.50;22.70;;;;;;;2.20;100.00;101657.96;450270;1251;143760;-61
2023/01/24 11:40:43;;;;;;;43.00;24.60;;;;;;;1.98;100.00;101651.66;449897;1251;143466;-61
2023/01/24 11:51:01;;;;;;;47.20;28.00;;;;;;;1.97;100.00;101649.56;450254;1251;144444;-59
2023/01/24 12:01:27;;;;;;;52.40;27.60;;;;;;;2.03;100.00;101638.36;449421;1251;144138;-61
2023/01/24 12:11:39;;;;;;;46.70;29.10;;;;;;;2.20;100.00;101635.50;450283;1251;203435;-60
2023/01/24 12:21:46;;;;;;;46.60;28.90;;;;;;;2.22;100.00;101632.21;448144;1251;143433;-59
2023/01/24 12:31:57;;;;;;;40.30;23.10;;;;;;;2.16;100.00;101631.67;445935;1251;148636;-61
2023/01/24 12:42:11;;;;;;;38.80;24.20;;;;;;;2.02;100.00;101625.92;450291;1251;142473;-61
2023/01/24 12:52:26;;;;;;;40.00;25.50;;;;;;;1.98;100.00;101616.41;449476;1251;146415;-60
2023/01/24 13:02:55;;;;;;;40.00;25.40;;;;;;;2.09;100.00;101617.65;450211;1251;142642;-60
2023/01/24 13:13:03;;;;;;;35.10;22.40;;;;;;;2.09;100.00;101624.22;449406;1251;143076;-60
2023/01/24 13:23:42;;;;;;;35.80;23.00;;;;;;;2.04;100.00;101616.42;446714;1251;143270;-59
2023/01/24 13:33:52;;;;;;;35.20;22.40;;;;;;;1.96;100.00;101613.98;449189;1251;143217;-61
2023/01/24 13:44:04;;;;;;;41.70;25.80;;;;;;;1.78;100.00;101614.94;450265;1251;143250;-60
2023/01/24 13:54:20;;;;;;;40.90;25.90;;;;;;;1.68;100.00;101613.16;450213;1251;143078;-60
2023/01/24 14:04:43;;;;;;;46.00;28.50;;;;;;;1.66;100.00;101617.97;449814;1251;144994;-61
2023/01/24 14:15:04;;;;;;;42.80;27.80;;;;;;;1.53;100.00;101611.17;450203;1251;143873;-61
2023/01/24 14:25:42;;;;;;;43.00;26.20;;;;;;;1.54;100.00;101618.77;443176;1251;143054;-60
2023/01/24 14:35:59;;;;;;;43.50;27.50;;;;;;;1.50;100.00;101621.16;450155;1251;145315;-60
2023/01/24 14:46:13;;;;;;;41.10;23.60;;;;;;;1.36;100.00;101620.73;449495;1251;143478;-61
2023/01/24 14:56:19;;;;;;;48.40;30.80;;;;;;;1.27;100.00;101609.80;450260;1251;144213;-61
2023/01/24 15:06:27;;;;;;;46.90;28.40;;;;;;;1.23;100.00;101600.98;449424;1251;167359;-60
2023/01/24 15:16:38;;;;;;;45.30;28.00;;;;;;;1.17;100.00;101601.61;450223;1251;145184;-62
2023/01/24 15:26:47;;;;;;;47.00;29.50;;;;;;;1.14;100.00;101600.21;450126;1251;143310;-60
2023/01/24 15:37:01;;;;;;;57.00;32.00;;;;;;;1.14;100.00;101609.52;449392;1251;143208;-61
2023/01/24 15:57:45;;;;;;;48.60;29.80;;;;;;;1.04;100.00;101618.95;449413;1252;161172;-61
2023/01/24 16:07:51;;;;;;;46.30;27.70;;;;;;;0.98;100.00;101619.60;450172;1251;143357;-60
2023/01/24 16:17:57;;;;;;;47.80;28.80;;;;;;;0.94;100.00;101609.03;446208;1252;142681;-61
2023/01/24 16:28:04;;;;;;;43.50;27.00;;;;;;;0.94;100.00;101616.61;449318;1251;145420;-61
2023/01/24 16:38:10;;;;;;;;;;;;;;;0.93;100.00;101592.30;450183;1251;198925;-61
2023/01/24 16:48:17;;;;;;;53.40;30.80;;;;;;;0.95;100.00;101584.38;450417;1250;129112;-60
2023/01/24 16:58:23;;;;;;;50.60;31.20;;;;;;;0.92;100.00;101592.64;437348;1250;213542;-60
2023/01/24 17:08:29;;;;;;;55.60;34.10;;;;;;;0.87;100.00;101608.98;449993;1251;153223;-61
2023/01/24 17:18:36;;;;;;;67.90;37.80;;;;;;;0.92;100.00;101617.12;449500;1251;143279;-61
2023/01/24 17:28:44;;;;;;;51.90;32.80;;;;;;;0.97;100.00;101627.16;437766;1250;142709;-61
2023/01/24 17:38:52;;;;;;;58.80;32.80;;;;;;;0.97;100.00;101636.81;444296;1251;142797;-63
2023/01/24 17:48:58;;;;;;;55.20;32.80;;;;;;;0.90;100.00;101629.35;449430;1251;143386;-61
2023/01/24 17:59:05;;;;;;;49.40;30.60;;;;;;;0.88;100.00;101623.48;450173;1251;187383;-61
2023/01/24 18:09:11;;;;;;;54.80;32.00;;;;;;;0.88;100.00;101623.64;450130;1251;143541;-61
2023/01/24 18:19:17;;;;;;;54.00;32.50;;;;;;;0.88;100.00;101620.19;449494;1251;143191;-61
2023/01/24 18:29:23;;;;;;;60.50;34.60;;;;;;;0.90;100.00;101611.75;450171;1251;142952;-60
2023/01/24 18:39:29;;;;;;;51.40;34.40;;;;;;;0.82;100.00;101607.55;448990;1250;146068;-62
2023/01/24 18:49:35;;;;;;;62.20;34.10;;;;;;;0.85;100.00;101618.27;450111;1251;143680;-61
2023/01/24 18:59:41;;;;;;;60.50;34.60;;;;;;;0.88;100.00;101620.54;450184;1251;143501;-60
2023/01/24 19:09:47;;;;;;;61.50;37.50;;;;;;;0.91;100.00;101610.38;449454;1251;142604;-60
2023/01/24 19:19:53;;;;;;;62.20;38.10;;;;;;;0.92;100.00;101607.13;448028;1252;187123;-61
2023/01/24 19:29:59;;;;;;;69.10;39.10;;;;;;;0.88;100.00;101603.45;447901;1251;143199;-60
2023/01/24 19:40:07;;;;;;;63.30;36.20;;;;;;;0.85;100.00;101604.81;442527;1251;143328;-61
2023/01/24 19:50:13;;;;;;;59.80;37.40;;;;;;;0.85;100.00;101604.30;447780;1251;143392;-61
2023/01/24 20:00:20;;;;;;;61.50;36.00;;;;;;;0.87;100.00;101598.97;450148;1250;143620;-61
2023/01/24 20:10:27;;;;;;;51.00;33.50;;;;;;;0.86;100.00;101598.80;449768;1251;197240;-60
2023/01/24 20:20:33;;;;;;;57.00;34.70;;;;;;;0.86;100.00;101602.59;450369;1250;142905;-61
2023/01/24 20:30:38;;;;;;;;;;;;;;;0.89;100.00;101602.44;449657;1251;145812;-60
2023/01/24 20:40:45;;;;;;;64.30;35.40;;;;;;;0.83;100.00;101609.45;450553;1251;129812;-60
2023/01/24 20:50:59;;;;;;;60.00;35.20;;;;;;;0.78;100.00;101602.00;450336;1251;142831;-60
2023/01/24 21:01:07;;;;;;;65.50;35.90;;;;;;;0.79;100.00;101592.02;449494;1252;143141;-60
2023/01/24 21:11:19;;;;;;;55.90;32.40;;;;;;;0.79;100.00;101592.88;450102;1250;144045;-61
2023/01/24 21:21:29;;;;;;;52.90;32.60;;;;;;;0.73;100.00;101594.54;449118;1251;154088;-60
2023/01/24 21:31:35;;;;;;;49.30;29.70;;;;;;;0.67;100.00;101599.48;439285;1251;142606;-59
2023/01/24 21:41:55;;;;;;;;;;;;;;;0.61;100.00;101588.39;434262;1253;142822;-59
2023/01/24 21:52:02;;;;;;;49.60;30.50;;;;;;;0.57;100.00;101585.96;439137;1252;128997;-59
2023/01/24 22:02:12;;;;;;;44.70;26.70;;;;;;;0.51;100.00;101592.80;450178;1252;144141;-59
2023/01/24 22:12:18;;;;;;;43.50;28.00;;;;;;;0.51;100.00;101591.40;450350;1250;142985;-59
2023/01/24 22:22:38;;;;;;;41.30;26.80;;;;;;;0.52;100.00;101593.31;449886;1252;210503;-59
2023/01/24 22:32:45;;;;;;;46.50;28.20;;;;;;;0.53;100.00;101594.03;450271;1252;143862;-59
2023/01/24 22:42:54;;;;;;;43.00;27.50;;;;;;;0.47;100.00;101586.02;449582;1252;143443;-60
2023/01/24 22:53:00;;;;;;;41.50;27.60;;;;;;;0.35;100.00;101577.64;450159;1251;143108;-60
2023/01/24 23:03:07;;;;;;;46.00;29.60;;;;;;;0.31;100.00;101570.53;450314;1251;144282;-59
2023/01/24 23:23:38;;;;;;;34.40;24.30;;;;;;;0.14;100.00;101545.54;437068;1255;142736;-60
2023/01/24 23:33:46;;;;;;;31.40;22.40;;;;;;;0.05;100.00;101522.37;449575;1251;144912;-61
2023/01/24 23:43:53;;;;;;;34.80;22.10;;;;;;;0.03;100.00;101523.73;450410;1251;143735;-59
2023/01/24 23:53:59;;;;;;;34.50;23.20;;;;;;;-0.02;100.00;101513.02;450149;1252;142963;-60
